sensor_id;sensor_type;location;lat;lon;timestamp;pressure;altitude;pressure_sealevel;temperature;humidity
65800;BME280;52544;48.116;11.660;2023-03-22T00:00:42;95492.81;;;9.25;81.67
65800;BME280;52544;48.116;11.660;2023-03-22T00:03:08;95497.41;;;9.23;81.90
65800;BME280;52544;48.116;11.660;2023-03-22T00:05:34;95495.00;;;9.20;82.28
65800;BME280;52544;48.116;11.660;2023-03-22T00:08:00;95497.41;;;9.23;82.49
65800;BME280;52544;48.116;11.660;2023-03-22T00:10:29;95496.66;;;9.21;83.05
65800;BME280;52544;48.116;11.660;2023-03-22T00:12:55;95491.75;;;9.17;83.21
65800;BME280;52544;48.116;11.660;2023-03-22T00:15:21;95480.13;;;9.19;83.32
65800;BME280;52544;48.116;11.660;2023-03-22T00:17:47;95480.13;;;9.19;83.83
65800;BME280;52544;48.116;11.660;2023-03-22T00:20:14;95477.41;;;9.10;84.16
65800;BME280;52544;48.116;11.660;2023-03-22T00:22:42;95472.50;;;9.05;84.49
65800;BME280;52544;48.116;11.660;2023-03-22T00:25:22;95479.47;;;8.95;85.49
65800;BME280;52544;48.116;11.660;2023-03-22T00:27:48;95475.50;;;9.00;85.48
65800;BME280;52544;48.116;11.660;2023-03-22T00:30:13;95470.81;;;9.04;85.25
65800;BME280;52544;48.116;11.660;2023-03-22T00:32:39;95463.84;;;9.03;85.35
65800;BME280;52544;48.116;11.660;2023-03-22T00:35:07;95467.47;;;9.02;85.21
65800;BME280;52544;48.116;11.660;2023-03-22T00:37:34;95461.66;;;9.08;85.55
65800;BME280;52544;48.116;11.660;2023-03-22T00:40:08;95454.25;;;9.13;84.65
65800;BME280;52544;48.116;11.660;2023-03-22T00:42:37;95458.41;;;9.16;84.54
65800;BME280;52544;48.116;11.660;2023-03-22T00:45:03;95441.50;;;9.18;84.11
65800;BME280;52544;48.116;11.660;2023-03-22T00:47:29;95449.88;;;9.23;84.09
65800;BME280;52544;48.116;11.660;2023-03-22T00:49:55;95439.63;;;9.30;83.43
65800;BME280;52544;48.116;11.660;2023-03-22T00:52:20;95432.28;;;9.34;83.11
65800;BME280;52544;48.116;11.660;2023-03-22T00:54:46;95435.53;;;9.37;82.46
65800;BME280;52544;48.116;11.660;2023-03-22T00:57:12;95434.06;;;9.44;81.96
65800;BME280;52544;48.116;11.660;2023-03-22T00:59:38;95430.31;;;9.47;81.54
65800;BME280;52544;48.116;11.660;2023-03-22T01:02:05;95438.13;;;9.48;81.37
65800;BME280;52544;48.116;11.660;2023-03-22T01:04:32;95439.66;;;9.51;81.38
65800;BME280;52544;48.116;11.660;2023-03-22T01:07:00;95434.84;;;9.56;80.64
65800;BME280;52544;48.116;11.660;2023-03-22T01:09:28;95429.28;;;9.59;80.17
65800;BME280;52544;48.116;11.660;2023-03-22T01:11:56;95441.41;;;9.62;80.07
65800;BME280;52544;48.116;11.660;2023-03-22T01:14:23;95437.09;;;9.61;79.79
65800;BME280;52544;48.116;11.660;2023-03-22T01:16:50;95435.28;;;9.61;79.89
65800;BME280;52544;48.116;11.660;2023-03-22T01:19:16;95435.19;;;9.72;78.73
65800;BME280;52544;48.116;11.660;2023-03-22T01:21:41;95430.19;;;9.69;78.86
65800;BME280;52544;48.116;11.660;2023-03-22T01:24:07;95429.47;;;9.67;78.90
65800;BME280;52544;48.116;11.660;2023-03-22T01:26:32;95439.06;;;9.68;78.70
65800;BME280;52544;48.116;11.660;2023-03-22T01:28:58;95440.25;;;9.75;78.16
65800;BME280;52544;48.116;11.660;2023-03-22T01:31:23;95426.91;;;9.77;78.36
65800;BME280;52544;48.116;11.660;2023-03-22T01:33:49;95427.81;;;9.87;77.41
65800;BME280;52544;48.116;11.660;2023-03-22T01:36:15;95417.63;;;9.83;77.79
65800;BME280;52544;48.116;11.660;2023-03-22T01:38:40;95416.66;;;9.84;77.60
65800;BME280;52544;48.116;11.660;2023-03-22T01:41:06;95417.72;;;9.81;77.75
65800;BME280;52544;48.116;11.660;2023-03-22T01:43:31;95414.94;;;9.73;78.36
65800;BME280;52544;48.116;11.660;2023-03-22T01:45:57;95411.06;;;9.77;78.09
65800;BME280;52544;48.116;11.660;2023-03-22T01:48:29;95408.97;;;9.81;77.74
65800;BME280;52544;48.116;11.660;2023-03-22T01:53:29;95407.38;;;9.68;78.93
65800;BME280;52544;48.116;11.660;2023-03-22T01:55:57;95403.88;;;9.68;79.15
65800;BME280;52544;48.116;11.660;2023-03-22T01:58:23;95400.41;;;9.67;78.60
65800;BME280;52544;48.116;11.660;2023-03-22T02:00:49;95407.66;;;9.65;78.94
65800;BME280;52544;48.116;11.660;2023-03-22T02:03:21;95410.34;;;9.54;79.07
65800;BME280;52544;48.116;11.660;2023-03-22T02:05:46;95412.34;;;9.62;78.84
65800;BME280;52544;48.116;11.660;2023-03-22T02:08:12;95413.19;;;9.62;78.78
65800;BME280;52544;48.116;11.660;2023-03-22T02:10:39;95399.81;;;9.64;78.87
65800;BME280;52544;48.116;11.660;2023-03-22T02:13:21;95407.56;;;9.56;79.33
65800;BME280;52544;48.116;11.660;2023-03-22T02:21:36;95396.94;;;9.46;79.71
65800;BME280;52544;48.116;11.660;2023-03-22T02:24:39;95397.47;;;9.40;79.91
65800;BME280;52544;48.116;11.660;2023-03-22T02:27:22;95408.53;;;9.34;80.33
65800;BME280;52544;48.116;11.660;2023-03-22T02:36:08;95394.47;;;9.12;81.58
65800;BME280;52544;48.116;11.660;2023-03-22T02:44:44;95388.09;;;8.83;83.99
65800;BME280;52544;48.116;11.660;2023-03-22T02:47:21;95393.72;;;8.89;83.02
65800;BME280;52544;48.116;11.660;2023-03-22T02:50:10;95394.50;;;8.69;84.29
65800;BME280;52544;48.116;11.660;2023-03-22T02:53:41;95388.88;;;8.62;84.62
65800;BME280;52544;48.116;11.660;2023-03-22T02:55:56;95392.84;;;8.57;85.09
65800;BME280;52544;48.116;11.660;2023-03-22T02:58:34;95394.88;;;8.53;85.25
65800;BME280;52544;48.116;11.660;2023-03-22T03:01:28;95407.47;;;8.49;85.79
65800;BME280;52544;48.116;11.660;2023-03-22T03:03:57;95411.19;;;8.36;86.83
65800;BME280;52544;48.116;11.660;2023-03-22T03:06:26;95410.63;;;8.21;87.72
65800;BME280;52544;48.116;11.660;2023-03-22T03:08:54;95404.13;;;8.14;88.29
65800;BME280;52544;48.116;11.660;2023-03-22T03:11:23;95402.56;;;8.22;88.13
65800;BME280;52544;48.116;11.660;2023-03-22T03:13:49;95414.91;;;8.22;87.66
65800;BME280;52544;48.116;11.660;2023-03-22T03:16:20;95418.38;;;8.22;87.49
65800;BME280;52544;48.116;11.660;2023-03-22T03:18:55;95418.16;;;8.14;88.04
65800;BME280;52544;48.116;11.660;2023-03-22T03:21:47;95412.88;;;8.14;87.71
65800;BME280;52544;48.116;11.660;2023-03-22T03:24:29;95421.03;;;8.11;87.34
65800;BME280;52544;48.116;11.660;2023-03-22T03:32:44;95424.03;;;7.95;88.40
65800;BME280;52544;48.116;11.660;2023-03-22T03:35:33;95424.25;;;7.92;88.24
65800;BME280;52544;48.116;11.660;2023-03-22T03:38:11;95423.88;;;7.86;87.91
65800;BME280;52544;48.116;11.660;2023-03-22T03:40:44;95427.75;;;7.82;88.70
65800;BME280;52544;48.116;11.660;2023-03-22T03:43:13;95425.34;;;7.79;88.69
65800;BME280;52544;48.116;11.660;2023-03-22T03:45:39;95419.59;;;7.73;89.08
65800;BME280;52544;48.116;11.660;2023-03-22T03:48:08;95424.56;;;7.54;90.05
65800;BME280;52544;48.116;11.660;2023-03-22T03:50:37;95427.69;;;7.48;90.64
65800;BME280;52544;48.116;11.660;2023-03-22T03:53:03;95421.25;;;7.28;91.59
65800;BME280;52544;48.116;11.660;2023-03-22T03:55:29;95428.06;;;7.19;92.82
65800;BME280;52544;48.116;11.660;2023-03-22T03:57:54;95428.69;;;6.99;94.70
65800;BME280;52544;48.116;11.660;2023-03-22T04:00:20;95416.28;;;7.12;94.71
65800;BME280;52544;48.116;11.660;2023-03-22T04:02:45;95417.19;;;7.24;93.60
65800;BME280;52544;48.116;11.660;2023-03-22T04:05:11;95421.00;;;7.20;92.88
65800;BME280;52544;48.116;11.660;2023-03-22T04:07:37;95417.78;;;7.28;92.95
65800;BME280;52544;48.116;11.660;2023-03-22T04:10:04;95419.00;;;7.35;92.45
65800;BME280;52544;48.116;11.660;2023-03-22T04:12:30;95413.03;;;7.33;91.74
65800;BME280;52544;48.116;11.660;2023-03-22T04:14:56;95409.50;;;7.21;92.15
65800;BME280;52544;48.116;11.660;2023-03-22T04:17:21;95406.16;;;7.19;92.12
65800;BME280;52544;48.116;11.660;2023-03-22T04:19:47;95420.03;;;7.21;92.42
65800;BME280;52544;48.116;11.660;2023-03-22T04:22:13;95411.31;;;7.20;91.85
65800;BME280;52544;48.116;11.660;2023-03-22T04:24:43;95415.25;;;7.15;91.90
65800;BME280;52544;48.116;11.660;2023-03-22T04:27:16;95407.97;;;7.18;92.75
65800;BME280;52544;48.116;11.660;2023-03-22T04:29:42;95410.13;;;7.24;93.43
65800;BME280;52544;48.116;11.660;2023-03-22T04:32:14;95408.19;;;7.15;92.83
65800;BME280;52544;48.116;11.660;2023-03-22T04:34:41;95411.78;;;7.14;93.79
65800;BME280;52544;48.116;11.660;2023-03-22T04:37:06;95417.03;;;7.14;94.18
65800;BME280;52544;48.116;11.660;2023-03-22T04:39:32;95405.91;;;7.22;93.94
65800;BME280;52544;48.116;11.660;2023-03-22T04:41:58;95415.38;;;7.24;93.59
65800;BME280;52544;48.116;11.660;2023-03-22T04:44:23;95404.91;;;7.36;93.61
65800;BME280;52544;48.116;11.660;2023-03-22T04:46:49;95404.66;;;7.39;93.19
65800;BME280;52544;48.116;11.660;2023-03-22T04:49:14;95404.41;;;7.42;92.63
65800;BME280;52544;48.116;11.660;2023-03-22T04:51:40;95404.41;;;7.42;92.17
65800;BME280;52544;48.116;11.660;2023-03-22T04:54:05;95398.94;;;7.45;91.76
65800;BME280;52544;48.116;11.660;2023-03-22T04:56:30;95401.44;;;7.35;91.39
65800;BME280;52544;48.116;11.660;2023-03-22T04:58:56;95404.63;;;7.28;92.02
65800;BME280;52544;48.116;11.660;2023-03-22T05:01:21;95402.63;;;7.31;91.87
65800;BME280;52544;48.116;11.660;2023-03-22T05:03:47;95407.63;;;7.34;92.07
65800;BME280;52544;48.116;11.660;2023-03-22T05:06:13;95403.28;;;7.22;92.09
65800;BME280;52544;48.116;11.660;2023-03-22T05:08:38;95409.63;;;7.19;92.93
65800;BME280;52544;48.116;11.660;2023-03-22T05:11:10;95411.53;;;7.17;93.14
65800;BME280;52544;48.116;11.660;2023-03-22T05:13:36;95415.94;;;7.17;92.90
65800;BME280;52544;48.116;11.660;2023-03-22T05:16:03;95412.94;;;7.10;93.43
65800;BME280;52544;48.116;11.660;2023-03-22T05:18:29;95411.78;;;7.14;93.13
65800;BME280;52544;48.116;11.660;2023-03-22T05:20:55;95408.53;;;7.22;92.85
65800;BME280;52544;48.116;11.660;2023-03-22T05:23:22;95412.47;;;7.16;92.79
65800;BME280;52544;48.116;11.660;2023-03-22T05:25:48;95411.88;;;7.13;92.77
65800;BME280;52544;48.116;11.660;2023-03-22T05:28:15;95409.63;;;7.19;92.68
65800;BME280;52544;48.116;11.660;2023-03-22T05:30:41;95417.19;;;7.24;92.99
65800;BME280;52544;48.116;11.660;2023-03-22T05:33:07;95410.59;;;7.30;92.54
65800;BME280;52544;48.116;11.660;2023-03-22T05:35:35;95409.91;;;7.39;91.97
65800;BME280;52544;48.116;11.660;2023-03-22T05:38:02;95422.25;;;7.38;91.59
65800;BME280;52544;48.116;11.660;2023-03-22T05:40:27;95415.44;;;7.36;91.99
65800;BME280;52544;48.116;11.660;2023-03-22T05:42:53;95416.84;;;7.29;92.44
65800;BME280;52544;48.116;11.660;2023-03-22T05:45:19;95419.00;;;7.35;92.49
65800;BME280;52544;48.116;11.660;2023-03-22T05:47:45;95419.00;;;7.35;92.23
65800;BME280;52544;48.116;11.660;2023-03-22T05:50:13;95419.25;;;7.43;91.48
65800;BME280;52544;48.116;11.660;2023-03-22T05:52:39;95420.00;;;7.45;91.59
65800;BME280;52544;48.116;11.660;2023-03-22T05:55:05;95425.03;;;7.48;91.89
65800;BME280;52544;48.116;11.660;2023-03-22T05:57:32;95423.34;;;7.47;91.29
65800;BME280;52544;48.116;11.660;2023-03-22T05:59:57;95427.78;;;7.46;91.56
65800;BME280;52544;48.116;11.660;2023-03-22T06:02:24;95423.50;;;7.57;90.34
65800;BME280;52544;48.116;11.660;2023-03-22T06:04:50;95423.03;;;7.63;90.07
65800;BME280;52544;48.116;11.660;2023-03-22T06:07:16;95422.19;;;7.62;90.29
65800;BME280;52544;48.116;11.660;2023-03-22T06:09:42;95422.31;;;7.72;89.63
65800;BME280;52544;48.116;11.660;2023-03-22T06:12:08;95417.91;;;7.84;89.09
65800;BME280;52544;48.116;11.660;2023-03-22T06:14:33;95413.84;;;7.91;88.67
65800;BME280;52544;48.116;11.660;2023-03-22T06:16:58;95411.31;;;8.00;87.84
65800;BME280;52544;48.116;11.660;2023-03-22T06:19:24;95418.38;;;8.11;87.42
65800;BME280;52544;48.116;11.660;2023-03-22T06:21:50;95417.19;;;8.26;86.08
65800;BME280;52544;48.116;11.660;2023-03-22T06:24:17;95422.84;;;8.33;85.22
65800;BME280;52544;48.116;11.660;2023-03-22T06:26:43;95414.31;;;8.41;84.63
65800;BME280;52544;48.116;11.660;2023-03-22T06:29:08;95417.19;;;8.49;84.01
65800;BME280;52544;48.116;11.660;2023-03-22T06:31:34;95416.22;;;8.61;82.63
65800;BME280;52544;48.116;11.660;2023-03-22T06:33:59;95416.34;;;8.71;82.11
65800;BME280;52544;48.116;11.660;2023-03-22T06:36:24;95413.16;;;8.88;80.96
65800;BME280;52544;48.116;11.660;2023-03-22T06:38:50;95413.84;;;9.01;79.84
65800;BME280;52544;48.116;11.660;2023-03-22T06:41:16;95411.63;;;9.18;78.44
65800;BME280;52544;48.116;11.660;2023-03-22T06:43:41;95418.63;;;9.29;78.19
65800;BME280;52544;48.116;11.660;2023-03-22T06:46:07;95414.53;;;9.36;77.90
65800;BME280;52544;48.116;11.660;2023-03-22T06:48:32;95411.50;;;9.61;76.96
65800;BME280;52544;48.116;11.660;2023-03-22T06:50:57;95412.53;;;9.91;74.77
65800;BME280;52544;48.116;11.660;2023-03-22T06:53:23;95414.00;;;10.14;72.84
65800;BME280;52544;48.116;11.660;2023-03-22T06:55:49;95403.00;;;10.40;72.19
65800;BME280;52544;48.116;11.660;2023-03-22T06:58:15;95413.41;;;10.62;71.37
65800;BME280;52544;48.116;11.660;2023-03-22T07:00:40;95409.78;;;10.83;70.70
65800;BME280;52544;48.116;11.660;2023-03-22T07:03:06;95412.78;;;11.09;68.56
65800;BME280;52544;48.116;11.660;2023-03-22T07:05:31;95411.53;;;11.32;67.36
65800;BME280;52544;48.116;11.660;2023-03-22T07:07:57;95411.81;;;11.39;66.61
65800;BME280;52544;48.116;11.660;2023-03-22T07:10:22;95423.81;;;11.43;65.53
65800;BME280;52544;48.116;11.660;2023-03-22T07:12:47;95423.81;;;11.43;65.92
65800;BME280;52544;48.116;11.660;2023-03-22T07:15:13;95419.47;;;11.61;65.29
65800;BME280;52544;48.116;11.660;2023-03-22T07:17:38;95417.63;;;11.71;64.36
65800;BME280;52544;48.116;11.660;2023-03-22T07:20:05;95419.16;;;11.84;63.92
65800;BME280;52544;48.116;11.660;2023-03-22T07:22:31;95418.47;;;11.91;63.62
65800;BME280;52544;48.116;11.660;2023-03-22T07:24:56;95411.50;;;11.90;63.03
65800;BME280;52544;48.116;11.660;2023-03-22T07:27:22;95414.13;;;12.00;63.40
65800;BME280;52544;48.116;11.660;2023-03-22T07:29:47;95413.47;;;12.25;62.90
65800;BME280;52544;48.116;11.660;2023-03-22T07:32:13;95416.75;;;12.47;61.42
65800;BME280;52544;48.116;11.660;2023-03-22T07:34:38;95413.31;;;12.64;61.32
65800;BME280;52544;48.116;11.660;2023-03-22T07:37:04;95412.41;;;12.73;59.12
65800;BME280;52544;48.116;11.660;2023-03-22T07:39:31;95411.31;;;12.94;58.90
65800;BME280;52544;48.116;11.660;2023-03-22T07:41:57;95406.72;;;13.14;56.27
65800;BME280;52544;48.116;11.660;2023-03-22T07:44:22;95411.69;;;12.99;56.58
65800;BME280;52544;48.116;11.660;2023-03-22T07:46:48;95413.44;;;13.08;56.51
65800;BME280;52544;48.116;11.660;2023-03-22T07:49:15;95412.56;;;13.17;56.76
65800;BME280;52544;48.116;11.660;2023-03-22T07:51:41;95419.50;;;13.28;55.75
65800;BME280;52544;48.116;11.660;2023-03-22T07:54:06;95417.44;;;13.40;56.61
65800;BME280;52544;48.116;11.660;2023-03-22T07:56:32;95407.88;;;13.47;56.23
65800;BME280;52544;48.116;11.660;2023-03-22T07:58:57;95413.31;;;13.63;55.34
65800;BME280;52544;48.116;11.660;2023-03-22T08:01:23;95406.78;;;13.75;55.13
65800;BME280;52544;48.116;11.660;2023-03-22T08:03:49;95418.16;;;13.86;53.80
65800;BME280;52544;48.116;11.660;2023-03-22T08:06:14;95416.94;;;13.98;53.27
65800;BME280;52544;48.116;11.660;2023-03-22T08:08:40;95410.66;;;14.07;53.47
65800;BME280;52544;48.116;11.660;2023-03-22T08:11:06;95415.16;;;14.33;52.54
65800;BME280;52544;48.116;11.660;2023-03-22T08:13:32;95413.53;;;14.48;52.60
65800;BME280;52544;48.116;11.660;2023-03-22T08:15:58;95406.97;;;14.60;53.69
65800;BME280;52544;48.116;11.660;2023-03-22T08:18:24;95408.72;;;14.78;52.60
65800;BME280;52544;48.116;11.660;2023-03-22T08:20:57;95413.44;;;14.92;53.22
65800;BME280;52544;48.116;11.660;2023-03-22T08:23:24;95405.97;;;15.12;52.51
65800;BME280;52544;48.116;11.660;2023-03-22T08:25:50;95402.50;;;15.19;52.12
65800;BME280;52544;48.116;11.660;2023-03-22T08:28:16;95413.19;;;15.36;51.88
65800;BME280;52544;48.116;11.660;2023-03-22T08:30:43;95413.72;;;15.56;52.19
65800;BME280;52544;48.116;11.660;2023-03-22T08:33:09;95407.56;;;15.71;50.75
65800;BME280;52544;48.116;11.660;2023-03-22T08:35:34;95399.94;;;15.93;50.60
65800;BME280;52544;48.116;11.660;2023-03-22T08:38:00;95404.59;;;15.91;50.20
65800;BME280;52544;48.116;11.660;2023-03-22T08:40:25;95413.91;;;15.79;49.63
65800;BME280;52544;48.116;11.660;2023-03-22T08:43:02;95414.09;;;15.85;50.89
65800;BME280;52544;48.116;11.660;2023-03-22T08:45:28;95405.25;;;15.77;49.68
65800;BME280;52544;48.116;11.660;2023-03-22T08:47:54;95401.59;;;15.69;49.87
65800;BME280;52544;48.116;11.660;2023-03-22T08:50:19;95409.59;;;15.69;49.93
65800;BME280;52544;48.116;11.660;2023-03-22T08:52:44;95406.75;;;15.79;49.75
65800;BME280;52544;48.116;11.660;2023-03-22T08:55:10;95401.72;;;15.92;50.15
65800;BME280;52544;48.116;11.660;2023-03-22T08:57:35;95400.06;;;16.08;48.94
65800;BME280;52544;48.116;11.660;2023-03-22T09:00:04;95390.88;;;16.10;49.47
65800;BME280;52544;48.116;11.660;2023-03-22T09:02:31;95396.53;;;16.23;49.60
65800;BME280;52544;48.116;11.660;2023-03-22T09:04:57;95387.63;;;16.39;48.60
65800;BME280;52544;48.116;11.660;2023-03-22T09:07:26;95387.13;;;16.44;48.46
65800;BME280;52544;48.116;11.660;2023-03-22T09:09:51;95381.63;;;16.37;47.87
65800;BME280;52544;48.116;11.660;2023-03-22T09:12:16;95387.47;;;16.41;48.88
65800;BME280;52544;48.116;11.660;2023-03-22T09:14:42;95381.19;;;16.65;47.37
65800;BME280;52544;48.116;11.660;2023-03-22T09:17:07;95382.69;;;16.76;47.69
65800;BME280;52544;48.116;11.660;2023-03-22T09:19:33;95379.69;;;16.79;46.87
65800;BME280;52544;48.116;11.660;2023-03-22T09:21:58;95380.38;;;16.72;46.42
65800;BME280;52544;48.116;11.660;2023-03-22T09:24:24;95375.66;;;16.83;46.13
65800;BME280;52544;48.116;11.660;2023-03-22T09:26:49;95376.97;;;16.87;46.32
65800;BME280;52544;48.116;11.660;2023-03-22T09:29:15;95371.06;;;16.99;45.80
65800;BME280;52544;48.116;11.660;2023-03-22T09:31:41;95369.38;;;16.98;45.40
65800;BME280;52544;48.116;11.660;2023-03-22T09:34:06;95367.38;;;17.01;45.18
65800;BME280;52544;48.116;11.660;2023-03-22T09:36:31;95367.22;;;16.94;45.03
65800;BME280;52544;48.116;11.660;2023-03-22T09:38:57;95364.28;;;17.12;44.90
65800;BME280;52544;48.116;11.660;2023-03-22T09:44:04;95358.63;;;17.38;45.69
65800;BME280;52544;48.116;11.660;2023-03-22T09:46:38;95351.31;;;17.55;44.86
65800;BME280;52544;48.116;11.660;2023-03-22T09:49:10;95350.28;;;17.79;44.54
65800;BME280;52544;48.116;11.660;2023-03-22T09:51:41;95350.69;;;17.90;43.56
65800;BME280;52544;48.116;11.660;2023-03-22T09:54:16;95349.50;;;18.08;42.82
65800;BME280;52544;48.116;11.660;2023-03-22T09:56:54;95347.56;;;18.02;42.91
65800;BME280;52544;48.116;11.660;2023-03-22T09:59:43;95342.97;;;18.10;42.43
65800;BME280;52544;48.116;11.660;2023-03-22T10:02:38;95344.81;;;18.24;42.55
65800;BME280;52544;48.116;11.660;2023-03-22T10:08:16;95326.31;;;18.59;41.64
65800;BME280;52544;48.116;11.660;2023-03-22T10:10:44;95333.91;;;18.70;41.80
65800;BME280;52544;48.116;11.660;2023-03-22T10:13:20;95327.78;;;18.77;41.31
65800;BME280;52544;48.116;11.660;2023-03-22T10:15:52;95333.56;;;18.73;40.81
65800;BME280;52544;48.116;11.660;2023-03-22T10:18:26;95324.00;;;18.56;40.81
65800;BME280;52544;48.116;11.660;2023-03-22T10:21:24;95323.34;;;18.84;41.48
65800;BME280;52544;48.116;11.660;2023-03-22T10:23:58;95322.91;;;19.16;40.52
65800;BME280;52544;48.116;11.660;2023-03-22T10:26:39;95315.34;;;19.27;40.53
65800;BME280;52544;48.116;11.660;2023-03-22T10:29:21;95318.13;;;19.55;39.47
65800;BME280;52544;48.116;11.660;2023-03-22T10:31:47;95311.25;;;19.67;38.90
65800;BME280;52544;48.116;11.660;2023-03-22T10:34:20;95310.75;;;19.85;39.23
65800;BME280;52544;48.116;11.660;2023-03-22T10:36:49;95297.03;;;20.01;38.48
65800;BME280;52544;48.116;11.660;2023-03-22T10:39:34;95291.34;;;20.17;38.48
65800;BME280;52544;48.116;11.660;2023-03-22T10:42:03;95294.88;;;20.18;37.86
65800;BME280;52544;48.116;11.660;2023-03-22T10:44:32;95293.72;;;20.34;37.90
65800;BME280;52544;48.116;11.660;2023-03-22T10:47:04;95291.25;;;20.39;37.76
65800;BME280;52544;48.116;11.660;2023-03-22T10:49:40;95295.41;;;20.41;37.46
65800;BME280;52544;48.116;11.660;2023-03-22T10:52:25;95295.06;;;20.51;37.19
65800;BME280;52544;48.116;11.660;2023-03-22T10:54:54;95295.53;;;20.61;36.51
65800;BME280;52544;48.116;11.660;2023-03-22T10:57:22;95289.69;;;20.51;35.81
65800;BME280;52544;48.116;11.660;2023-03-22T10:59:54;95288.41;;;20.47;36.13
65800;BME280;52544;48.116;11.660;2023-03-22T11:02:27;95284.44;;;20.36;35.58
65800;BME280;52544;48.116;11.660;2023-03-22T11:04:57;95283.53;;;20.64;35.33
65800;BME280;52544;48.116;11.660;2023-03-22T11:07:45;95284.19;;;20.72;34.99
65800;BME280;52544;48.116;11.660;2023-03-22T11:10:19;95282.38;;;20.73;34.82
65800;BME280;52544;48.116;11.660;2023-03-22T11:12:52;95290.66;;;20.78;34.13
65800;BME280;52544;48.116;11.660;2023-03-22T11:15:21;95282.84;;;20.90;34.37
65800;BME280;52544;48.116;11.660;2023-03-22T11:17:48;95282.88;;;21.03;35.08
65800;BME280;52544;48.116;11.660;2023-03-22T11:20:18;95279.66;;;21.34;35.44
65800;BME280;52544;48.116;11.660;2023-03-22T11:22:45;95279.00;;;21.32;33.55
65800;BME280;52544;48.116;11.660;2023-03-22T11:25:29;95276.13;;;21.47;32.70
65800;BME280;52544;48.116;11.660;2023-03-22T11:30:32;95271.38;;;21.42;32.33
65800;BME280;52544;48.116;11.660;2023-03-22T11:33:18;95268.28;;;21.72;32.68
65800;BME280;52544;48.116;11.660;2023-03-22T11:35:46;95267.84;;;21.82;32.16
65800;BME280;52544;48.116;11.660;2023-03-22T11:41:28;95257.47;;;22.18;32.36
65800;BME280;52544;48.116;11.660;2023-03-22T11:44:08;95253.34;;;22.67;32.36
65800;BME280;52544;48.116;11.660;2023-03-22T11:46:48;95247.91;;;22.81;30.99
65800;BME280;52544;48.116;11.660;2023-03-22T11:49:16;95248.91;;;22.93;30.47
65800;BME280;52544;48.116;11.660;2023-03-22T11:51:42;95259.56;;;22.75;29.98
65800;BME280;52544;48.116;11.660;2023-03-22T11:54:14;95237.09;;;22.36;30.54
65800;BME280;52544;48.116;11.660;2023-03-22T11:56:44;95240.69;;;22.16;30.96
65800;BME280;52544;48.116;11.660;2023-03-22T11:59:21;95240.03;;;22.28;30.84
65800;BME280;52544;48.116;11.660;2023-03-22T12:01:50;95231.94;;;22.28;31.37
65800;BME280;52544;48.116;11.660;2023-03-22T12:04:25;95232.31;;;22.38;30.71
65800;BME280;52544;48.116;11.660;2023-03-22T12:07:08;95238.34;;;22.40;31.02
65800;BME280;52544;48.116;11.660;2023-03-22T12:09:40;95233.78;;;22.40;30.63
65800;BME280;52544;48.116;11.660;2023-03-22T12:12:17;95218.00;;;22.44;30.48
65800;BME280;52544;48.116;11.660;2023-03-22T12:15:03;95216.81;;;22.27;30.57
65800;BME280;52544;48.116;11.660;2023-03-22T12:18:15;95221.06;;;22.54;31.22
65800;BME280;52544;48.116;11.660;2023-03-22T12:20:56;95221.34;;;22.39;30.19
65800;BME280;52544;48.116;11.660;2023-03-22T12:23:26;95214.56;;;22.17;30.24
65800;BME280;52544;48.116;11.660;2023-03-22T12:26:03;95205.22;;;22.19;29.98
65800;BME280;52544;48.116;11.660;2023-03-22T12:31:36;95208.75;;;22.27;29.70
65800;BME280;52544;48.116;11.660;2023-03-22T12:34:05;95207.28;;;22.24;29.67
65800;BME280;52544;48.116;11.660;2023-03-22T12:36:38;95189.66;;;22.21;29.62
65800;BME280;52544;48.116;11.660;2023-03-22T12:39:07;95198.97;;;22.32;30.32
65800;BME280;52544;48.116;11.660;2023-03-22T12:41:38;95194.50;;;22.51;30.60
65800;BME280;52544;48.116;11.660;2023-03-22T12:49:34;95182.50;;;22.92;29.14
65800;BME280;52544;48.116;11.660;2023-03-22T12:52:17;95170.38;;;22.69;28.97
65800;BME280;52544;48.116;11.660;2023-03-22T12:54:44;95174.38;;;22.60;28.98
65800;BME280;52544;48.116;11.660;2023-03-22T12:57:13;95167.13;;;22.54;29.04
65800;BME280;52544;48.116;11.660;2023-03-22T12:59:41;95160.91;;;22.60;29.43
65800;BME280;52544;48.116;11.660;2023-03-22T13:02:29;95146.63;;;22.91;29.34
65800;BME280;52544;48.116;11.660;2023-03-22T13:05:16;95146.03;;;23.14;28.49
65800;BME280;52544;48.116;11.660;2023-03-22T13:15:55;95146.06;;;22.76;29.07
65800;BME280;52544;48.116;11.660;2023-03-22T13:18:54;95141.50;;;23.08;28.47
65800;BME280;52544;48.116;11.660;2023-03-22T13:21:23;95123.69;;;23.32;29.24
65800;BME280;52544;48.116;11.660;2023-03-22T13:26:41;95126.69;;;24.23;28.25
65800;BME280;52544;48.116;11.660;2023-03-22T13:29:15;95122.13;;;24.23;26.68
65800;BME280;52544;48.116;11.660;2023-03-22T13:31:54;95120.09;;;24.18;27.04
65800;BME280;52544;48.116;11.660;2023-03-22T13:37:02;95124.09;;;23.98;26.37
65800;BME280;52544;48.116;11.660;2023-03-22T13:39:34;95116.81;;;23.80;27.66
65800;BME280;52544;48.116;11.660;2023-03-22T13:42:21;95121.44;;;23.73;27.66
65800;BME280;52544;48.116;11.660;2023-03-22T13:44:58;95121.81;;;23.94;26.87
65800;BME280;52544;48.116;11.660;2023-03-22T13:50:01;95125.69;;;23.62;27.08
65800;BME280;52544;48.116;11.660;2023-03-22T13:52:35;95120.78;;;23.52;27.59
65800;BME280;52544;48.116;11.660;2023-03-22T13:55:03;95122.84;;;23.32;27.47
65800;BME280;52544;48.116;11.660;2023-03-22T13:57:47;95114.31;;;23.35;27.36
65800;BME280;52544;48.116;11.660;2023-03-22T14:02:58;95116.19;;;23.34;27.46
65800;BME280;52544;48.116;11.660;2023-03-22T14:05:38;95113.72;;;23.51;27.66
65800;BME280;52544;48.116;11.660;2023-03-22T14:08:04;95105.03;;;23.49;27.87
65800;BME280;52544;48.116;11.660;2023-03-22T14:10:37;95108.84;;;23.41;28.65
65800;BME280;52544;48.116;11.660;2023-03-22T14:13:29;95108.03;;;23.16;28.26